sensor_id;sensor_type;location;lat;lon;timestamp;P1;durP1;ratioP1;P2;durP2;ratioP2
71387;SDS011;59201;59.902;10.520;2022-12-18T00:01:00;18.33;;;7.90;;
71387;SDS011;59201;59.902;10.520;2022-12-18T00:03:33;19.33;;;7.68;;
71387;SDS011;59201;59.902;10.520;2022-12-18T00:06:01;21.27;;;9.40;;
71387;SDS011;59201;59.902;10.520;2022-12-18T00:08:31;22.48;;;8.88;;
71387;SDS011;59201;59.902;10.520;2022-12-18T00:11:06;20.63;;;8.25;;
71387;SDS011;59201;59.902;10.520;2022-12-18T00:13:37;19.23;;;7.90;;
71387;SDS011;59201;59.902;10.520;2022-12-18T00:16:06;22.40;;;9.38;;
71387;SDS011;59201;59.902;10.520;2022-12-18T00:18:35;25.20;;;9.77;;
71387;SDS011;59201;59.902;10.520;2022-12-18T00:21:04;32.30;;;12.00;;
71387;SDS011;59201;59.902;10.520;2022-12-18T00:23:31;27.20;;;11.02;;
71387;SDS011;59201;59.902;10.520;2022-12-18T00:26:02;35.88;;;11.77;;
71387;SDS011;59201;59.902;10.520;2022-12-18T00:28:33;29.92;;;11.00;;
71387;SDS011;59201;59.902;10.520;2022-12-18T00:33:28;22.88;;;9.20;;
71387;SDS011;59201;59.902;10.520;2022-12-18T00:36:05;26.48;;;9.90;;
71387;SDS011;59201;59.902;10.520;2022-12-18T00:38:35;23.38;;;9.15;;
71387;SDS011;59201;59.902;10.520;2022-12-18T00:41:07;25.08;;;9.68;;
71387;SDS011;59201;59.902;10.520;2022-12-18T00:43:43;22.43;;;8.43;;
71387;SDS011;59201;59.902;10.520;2022-12-18T00:46:13;26.10;;;8.35;;
71387;SDS011;59201;59.902;10.520;2022-12-18T00:48:45;22.20;;;9.48;;
71387;SDS011;59201;59.902;10.520;2022-12-18T00:51:19;23.58;;;8.32;;
71387;SDS011;59201;59.902;10.520;2022-12-18T00:53:55;21.20;;;8.63;;
71387;SDS011;59201;59.902;10.520;2022-12-18T00:56:29;22.47;;;9.27;;
71387;SDS011;59201;59.902;10.520;2022-12-18T00:58:57;25.00;;;9.52;;
71387;SDS011;59201;59.902;10.520;2022-12-18T01:01:37;22.73;;;9.25;;
71387;SDS011;59201;59.902;10.520;2022-12-18T01:04:05;22.75;;;7.85;;
71387;SDS011;59201;59.902;10.520;2022-12-18T01:06:33;20.02;;;8.25;;
71387;SDS011;59201;59.902;10.520;2022-12-18T01:09:06;23.97;;;8.87;;
71387;SDS011;59201;59.902;10.520;2022-12-18T01:11:33;23.48;;;8.82;;
71387;SDS011;59201;59.902;10.520;2022-12-18T01:14:02;26.83;;;9.65;;
71387;SDS011;59201;59.902;10.520;2022-12-18T01:16:32;26.05;;;10.48;;
71387;SDS011;59201;59.902;10.520;2022-12-18T01:19:01;21.30;;;8.27;;
71387;SDS011;59201;59.902;10.520;2022-12-18T01:21:31;19.63;;;8.70;;
71387;SDS011;59201;59.902;10.520;2022-12-18T01:24:00;27.42;;;10.15;;
71387;SDS011;59201;59.902;10.520;2022-12-18T01:26:31;27.30;;;8.88;;
71387;SDS011;59201;59.902;10.520;2022-12-18T01:28:59;24.48;;;8.27;;
71387;SDS011;59201;59.902;10.520;2022-12-18T01:31:29;25.40;;;9.23;;
71387;SDS011;59201;59.902;10.520;2022-12-18T01:34:00;25.67;;;9.63;;
71387;SDS011;59201;59.902;10.520;2022-12-18T01:36:33;29.92;;;10.80;;
71387;SDS011;59201;59.902;10.520;2022-12-18T01:39:14;23.17;;;9.15;;
71387;SDS011;59201;59.902;10.520;2022-12-18T01:41:44;27.33;;;8.20;;
71387;SDS011;59201;59.902;10.520;2022-12-18T01:47:18;22.73;;;8.87;;
71387;SDS011;59201;59.902;10.520;2022-12-18T01:49:48;22.83;;;8.68;;
71387;SDS011;59201;59.902;10.520;2022-12-18T01:52:22;27.63;;;10.57;;
71387;SDS011;59201;59.902;10.520;2022-12-18T01:54:50;28.15;;;10.07;;
71387;SDS011;59201;59.902;10.520;2022-12-18T01:57:22;26.77;;;9.05;;
71387;SDS011;59201;59.902;10.520;2022-12-18T01:59:52;26.73;;;10.07;;
71387;SDS011;59201;59.902;10.520;2022-12-18T02:02:24;34.72;;;11.52;;
71387;SDS011;59201;59.902;10.520;2022-12-18T02:04:53;27.95;;;11.05;;
71387;SDS011;59201;59.902;10.520;2022-12-18T02:07:32;34.78;;;10.43;;
71387;SDS011;59201;59.902;10.520;2022-12-18T02:10:06;25.63;;;9.43;;
71387;SDS011;59201;59.902;10.520;2022-12-18T02:15:36;25.98;;;10.20;;
71387;SDS011;59201;59.902;10.520;2022-12-18T02:18:13;35.25;;;11.95;;
71387;SDS011;59201;59.902;10.520;2022-12-18T02:29:16;42.78;;;13.48;;
71387;SDS011;59201;59.902;10.520;2022-12-18T02:31:49;37.75;;;12.68;;
71387;SDS011;59201;59.902;10.520;2022-12-18T02:34:23;34.97;;;13.05;;
71387;SDS011;59201;59.902;10.520;2022-12-18T02:36:52;29.13;;;11.30;;
71387;SDS011;59201;59.902;10.520;2022-12-18T02:39:23;25.50;;;9.77;;
71387;SDS011;59201;59.902;10.520;2022-12-18T02:41:53;33.33;;;10.55;;
71387;SDS011;59201;59.902;10.520;2022-12-18T02:44:22;33.63;;;10.98;;
71387;SDS011;59201;59.902;10.520;2022-12-18T02:46:52;33.35;;;12.48;;
71387;SDS011;59201;59.902;10.520;2022-12-18T02:54:27;33.22;;;12.77;;
71387;SDS011;59201;59.902;10.520;2022-12-18T02:57:02;30.95;;;11.88;;
71387;SDS011;59201;59.902;10.520;2022-12-18T02:59:41;33.83;;;10.98;;
71387;SDS011;59201;59.902;10.520;2022-12-18T03:03:11;34.67;;;11.95;;
71387;SDS011;59201;59.902;10.520;2022-12-18T03:07:46;38.42;;;12.93;;
71387;SDS011;59201;59.902;10.520;2022-12-18T03:10:21;42.33;;;11.65;;
71387;SDS011;59201;59.902;10.520;2022-12-18T03:12:52;42.78;;;14.45;;
71387;SDS011;59201;59.902;10.520;2022-12-18T03:15:27;41.00;;;13.32;;
71387;SDS011;59201;59.902;10.520;2022-12-18T03:18:04;38.53;;;13.53;;
71387;SDS011;59201;59.902;10.520;2022-12-18T03:20:37;42.75;;;14.63;;
71387;SDS011;59201;59.902;10.520;2022-12-18T03:23:09;46.60;;;15.10;;
71387;SDS011;59201;59.902;10.520;2022-12-18T03:25:54;40.97;;;13.65;;
71387;SDS011;59201;59.902;10.520;2022-12-18T03:28:22;45.08;;;15.20;;
71387;SDS011;59201;59.902;10.520;2022-12-18T03:30:56;43.80;;;14.27;;
71387;SDS011;59201;59.902;10.520;2022-12-18T03:33:31;55.42;;;15.95;;
71387;SDS011;59201;59.902;10.520;2022-12-18T03:36:08;47.75;;;14.52;;
71387;SDS011;59201;59.902;10.520;2022-12-18T03:38:38;39.15;;;14.52;;
71387;SDS011;59201;59.902;10.520;2022-12-18T03:46:40;39.97;;;13.07;;
71387;SDS011;59201;59.902;10.520;2022-12-18T03:49:29;46.90;;;13.93;;
71387;SDS011;59201;59.902;10.520;2022-12-18T03:54:41;53.65;;;15.82;;
71387;SDS011;59201;59.902;10.520;2022-12-18T03:57:15;40.20;;;13.43;;
71387;SDS011;59201;59.902;10.520;2022-12-18T03:59:45;39.42;;;11.88;;
71387;SDS011;59201;59.902;10.520;2022-12-18T04:02:17;35.92;;;12.65;;
71387;SDS011;59201;59.902;10.520;2022-12-18T04:04:48;40.72;;;12.73;;
71387;SDS011;59201;59.902;10.520;2022-12-18T04:07:20;43.88;;;13.77;;
71387;SDS011;59201;59.902;10.520;2022-12-18T04:09:53;40.00;;;12.07;;
71387;SDS011;59201;59.902;10.520;2022-12-18T04:12:26;39.28;;;11.88;;
71387;SDS011;59201;59.902;10.520;2022-12-18T04:14:58;35.92;;;11.90;;
71387;SDS011;59201;59.902;10.520;2022-12-18T04:17:34;38.85;;;12.05;;
71387;SDS011;59201;59.902;10.520;2022-12-18T04:20:03;38.20;;;11.18;;
71387;SDS011;59201;59.902;10.520;2022-12-18T04:22:36;36.83;;;10.77;;
71387;SDS011;59201;59.902;10.520;2022-12-18T04:25:05;36.17;;;11.55;;
71387;SDS011;59201;59.902;10.520;2022-12-18T04:27:56;34.75;;;10.52;;
71387;SDS011;59201;59.902;10.520;2022-12-18T04:30:29;31.77;;;10.52;;
71387;SDS011;59201;59.902;10.520;2022-12-18T04:32:59;37.22;;;11.25;;
71387;SDS011;59201;59.902;10.520;2022-12-18T04:38:32;39.45;;;11.45;;
71387;SDS011;59201;59.902;10.520;2022-12-18T04:41:09;31.15;;;10.70;;
71387;SDS011;59201;59.902;10.520;2022-12-18T04:43:39;36.60;;;10.30;;
71387;SDS011;59201;59.902;10.520;2022-12-18T04:46:07;42.22;;;11.75;;
71387;SDS011;59201;59.902;10.520;2022-12-18T04:48:35;37.60;;;11.23;;
71387;SDS011;59201;59.902;10.520;2022-12-18T04:51:04;35.90;;;12.85;;
71387;SDS011;59201;59.902;10.520;2022-12-18T04:53:42;47.22;;;13.45;;
71387;SDS011;59201;59.902;10.520;2022-12-18T04:56:13;41.97;;;13.40;;
71387;SDS011;59201;59.902;10.520;2022-12-18T04:58:42;45.53;;;14.10;;
71387;SDS011;59201;59.902;10.520;2022-12-18T05:01:12;44.60;;;14.53;;
71387;SDS011;59201;59.902;10.520;2022-12-18T05:03:42;48.88;;;15.43;;
71387;SDS011;59201;59.902;10.520;2022-12-18T05:06:11;40.92;;;12.25;;
71387;SDS011;59201;59.902;10.520;2022-12-18T05:08:46;47.85;;;14.45;;
71387;SDS011;59201;59.902;10.520;2022-12-18T05:11:14;50.42;;;13.02;;
71387;SDS011;59201;59.902;10.520;2022-12-18T05:13:46;52.87;;;16.57;;
71387;SDS011;59201;59.902;10.520;2022-12-18T05:16:19;35.63;;;11.85;;
71387;SDS011;59201;59.902;10.520;2022-12-18T05:18:50;54.20;;;16.63;;
71387;SDS011;59201;59.902;10.520;2022-12-18T05:21:23;60.30;;;19.55;;
71387;SDS011;59201;59.902;10.520;2022-12-18T05:24:02;50.53;;;14.02;;
71387;SDS011;59201;59.902;10.520;2022-12-18T05:26:31;40.37;;;12.50;;
71387;SDS011;59201;59.902;10.520;2022-12-18T05:29:05;48.83;;;12.77;;
71387;SDS011;59201;59.902;10.520;2022-12-18T05:31:35;49.50;;;14.90;;
71387;SDS011;59201;59.902;10.520;2022-12-18T05:34:02;46.88;;;14.65;;
71387;SDS011;59201;59.902;10.520;2022-12-18T05:36:35;49.45;;;16.60;;
71387;SDS011;59201;59.902;10.520;2022-12-18T05:39:03;51.20;;;14.97;;
71387;SDS011;59201;59.902;10.520;2022-12-18T05:41:33;59.22;;;16.77;;
71387;SDS011;59201;59.902;10.520;2022-12-18T05:44:02;55.50;;;17.38;;
71387;SDS011;59201;59.902;10.520;2022-12-18T05:46:36;41.13;;;13.25;;
71387;SDS011;59201;59.902;10.520;2022-12-18T05:52:32;39.30;;;11.07;;
71387;SDS011;59201;59.902;10.520;2022-12-18T05:55:01;51.70;;;13.07;;
71387;SDS011;59201;59.902;10.520;2022-12-18T05:57:29;43.33;;;12.35;;
71387;SDS011;59201;59.902;10.520;2022-12-18T05:59:57;53.67;;;14.32;;
71387;SDS011;59201;59.902;10.520;2022-12-18T06:02:28;56.17;;;15.00;;
71387;SDS011;59201;59.902;10.520;2022-12-18T06:04:59;58.93;;;18.20;;
71387;SDS011;59201;59.902;10.520;2022-12-18T06:07:28;48.40;;;15.48;;
71387;SDS011;59201;59.902;10.520;2022-12-18T06:09:59;46.65;;;11.95;;
71387;SDS011;59201;59.902;10.520;2022-12-18T06:12:38;36.75;;;12.05;;
71387;SDS011;59201;59.902;10.520;2022-12-18T06:15:09;37.78;;;11.70;;
71387;SDS011;59201;59.902;10.520;2022-12-18T06:17:40;38.73;;;12.53;;
71387;SDS011;59201;59.902;10.520;2022-12-18T06:20:09;34.58;;;12.13;;
71387;SDS011;59201;59.902;10.520;2022-12-18T06:22:38;42.78;;;12.70;;
71387;SDS011;59201;59.902;10.520;2022-12-18T06:25:06;37.53;;;12.90;;
71387;SDS011;59201;59.902;10.520;2022-12-18T06:27:37;41.55;;;13.60;;
71387;SDS011;59201;59.902;10.520;2022-12-18T06:33:11;50.33;;;16.23;;
71387;SDS011;59201;59.902;10.520;2022-12-18T06:35:48;55.92;;;17.02;;
71387;SDS011;59201;59.902;10.520;2022-12-18T06:38:27;61.33;;;19.38;;
71387;SDS011;59201;59.902;10.520;2022-12-18T06:40:55;54.08;;;17.15;;
71387;SDS011;59201;59.902;10.520;2022-12-18T06:43:26;54.00;;;16.50;;
71387;SDS011;59201;59.902;10.520;2022-12-18T06:45:59;56.78;;;14.75;;
71387;SDS011;59201;59.902;10.520;2022-12-18T06:48:27;51.92;;;14.60;;
71387;SDS011;59201;59.902;10.520;2022-12-18T06:50:59;50.08;;;14.90;;
71387;SDS011;59201;59.902;10.520;2022-12-18T06:53:29;44.90;;;13.52;;
71387;SDS011;59201;59.902;10.520;2022-12-18T06:56:02;42.00;;;11.43;;
71387;SDS011;59201;59.902;10.520;2022-12-18T06:58:32;48.47;;;13.45;;
71387;SDS011;59201;59.902;10.520;2022-12-18T07:01:05;45.72;;;13.52;;
71387;SDS011;59201;59.902;10.520;2022-12-18T07:03:37;49.85;;;15.43;;
71387;SDS011;59201;59.902;10.520;2022-12-18T07:06:19;62.03;;;17.60;;
71387;SDS011;59201;59.902;10.520;2022-12-18T07:08:53;57.47;;;17.77;;
71387;SDS011;59201;59.902;10.520;2022-12-18T07:11:44;54.13;;;16.80;;
71387;SDS011;59201;59.902;10.520;2022-12-18T07:14:15;50.38;;;16.35;;
71387;SDS011;59201;59.902;10.520;2022-12-18T07:16:53;44.92;;;16.67;;
71387;SDS011;59201;59.902;10.520;2022-12-18T07:19:34;51.15;;;17.67;;
71387;SDS011;59201;59.902;10.520;2022-12-18T07:22:05;53.37;;;18.37;;
71387;SDS011;59201;59.902;10.520;2022-12-18T07:24:35;58.67;;;22.02;;
71387;SDS011;59201;59.902;10.520;2022-12-18T07:27:03;57.88;;;18.98;;
71387;SDS011;59201;59.902;10.520;2022-12-18T07:29:43;57.28;;;20.17;;
71387;SDS011;59201;59.902;10.520;2022-12-18T07:32:11;72.65;;;21.30;;
71387;SDS011;59201;59.902;10.520;2022-12-18T07:34:41;69.90;;;19.33;;
71387;SDS011;59201;59.902;10.520;2022-12-18T07:37:10;75.38;;;18.33;;
71387;SDS011;59201;59.902;10.520;2022-12-18T07:39:38;74.93;;;17.88;;
71387;SDS011;59201;59.902;10.520;2022-12-18T07:42:10;69.93;;;16.60;;
71387;SDS011;59201;59.902;10.520;2022-12-18T07:44:55;80.95;;;21.08;;
71387;SDS011;59201;59.902;10.520;2022-12-18T07:47:28;73.63;;;18.83;;
71387;SDS011;59201;59.902;10.520;2022-12-18T07:49:56;61.35;;;17.75;;
71387;SDS011;59201;59.902;10.520;2022-12-18T07:52:29;104.32;;;23.33;;
71387;SDS011;59201;59.902;10.520;2022-12-18T07:54:58;89.97;;;22.75;;
71387;SDS011;59201;59.902;10.520;2022-12-18T07:57:27;85.78;;;21.95;;
71387;SDS011;59201;59.902;10.520;2022-12-18T07:59:56;73.57;;;16.80;;
71387;SDS011;59201;59.902;10.520;2022-12-18T08:02:25;101.72;;;24.83;;
71387;SDS011;59201;59.902;10.520;2022-12-18T08:05:01;83.05;;;18.30;;
71387;SDS011;59201;59.902;10.520;2022-12-18T08:07:31;105.28;;;19.85;;
71387;SDS011;59201;59.902;10.520;2022-12-18T08:10:03;128.50;;;21.88;;
71387;SDS011;59201;59.902;10.520;2022-12-18T08:12:54;91.33;;;22.63;;
71387;SDS011;59201;59.902;10.520;2022-12-18T08:15:25;75.88;;;18.55;;
71387;SDS011;59201;59.902;10.520;2022-12-18T08:17:56;56.47;;;14.75;;
71387;SDS011;59201;59.902;10.520;2022-12-18T08:20:27;56.30;;;14.27;;
71387;SDS011;59201;59.902;10.520;2022-12-18T08:23:10;68.15;;;19.58;;
71387;SDS011;59201;59.902;10.520;2022-12-18T08:32:05;59.13;;;19.88;;
71387;SDS011;59201;59.902;10.520;2022-12-18T08:34:35;62.97;;;20.35;;
71387;SDS011;59201;59.902;10.520;2022-12-18T08:37:07;61.10;;;20.92;;
71387;SDS011;59201;59.902;10.520;2022-12-18T08:39:38;63.53;;;21.87;;
71387;SDS011;59201;59.902;10.520;2022-12-18T08:42:10;59.30;;;20.17;;
71387;SDS011;59201;59.902;10.520;2022-12-18T08:44:57;57.08;;;18.95;;
71387;SDS011;59201;59.902;10.520;2022-12-18T08:47:26;49.47;;;17.27;;
71387;SDS011;59201;59.902;10.520;2022-12-18T08:49:56;55.15;;;17.95;;
71387;SDS011;59201;59.902;10.520;2022-12-18T08:52:30;56.63;;;17.30;;
71387;SDS011;59201;59.902;10.520;2022-12-18T08:54:59;48.47;;;14.73;;
71387;SDS011;59201;59.902;10.520;2022-12-18T08:57:29;48.70;;;14.63;;
71387;SDS011;59201;59.902;10.520;2022-12-18T09:00:16;49.90;;;13.70;;
71387;SDS011;59201;59.902;10.520;2022-12-18T09:02:48;46.13;;;16.25;;
71387;SDS011;59201;59.902;10.520;2022-12-18T09:05:18;44.40;;;15.30;;
71387;SDS011;59201;59.902;10.520;2022-12-18T09:07:46;41.58;;;12.13;;
71387;SDS011;59201;59.902;10.520;2022-12-18T09:10:17;32.28;;;10.77;;
71387;SDS011;59201;59.902;10.520;2022-12-18T09:12:47;42.00;;;11.90;;
71387;SDS011;59201;59.902;10.520;2022-12-18T09:15:33;33.67;;;11.63;;
71387;SDS011;59201;59.902;10.520;2022-12-18T09:21:40;36.60;;;12.38;;
71387;SDS011;59201;59.902;10.520;2022-12-18T09:24:32;41.40;;;14.73;;
71387;SDS011;59201;59.902;10.520;2022-12-18T09:27:02;31.85;;;13.15;;
71387;SDS011;59201;59.902;10.520;2022-12-18T09:29:38;34.35;;;13.07;;
71387;SDS011;59201;59.902;10.520;2022-12-18T09:32:09;36.67;;;14.37;;
71387;SDS011;59201;59.902;10.520;2022-12-18T09:49:53;28.33;;;12.57;;
71387;SDS011;59201;59.902;10.520;2022-12-18T09:52:34;40.15;;;15.57;;
71387;SDS011;59201;59.902;10.520;2022-12-18T09:57:37;44.22;;;15.93;;
71387;SDS011;59201;59.902;10.520;2022-12-18T10:02:37;38.85;;;16.15;;
71387;SDS011;59201;59.902;10.520;2022-12-18T10:05:12;33.22;;;13.70;;
71387;SDS011;59201;59.902;10.520;2022-12-18T10:10:27;30.33;;;12.23;;
71387;SDS011;59201;59.902;10.520;2022-12-18T10:18:04;36.10;;;15.02;;
71387;SDS011;59201;59.902;10.520;2022-12-18T10:20:41;32.63;;;13.38;;
71387;SDS011;59201;59.902;10.520;2022-12-18T10:23:17;28.33;;;12.60;;
71387;SDS011;59201;59.902;10.520;2022-12-18T10:26:07;28.67;;;11.93;;
71387;SDS011;59201;59.902;10.520;2022-12-18T10:29:11;27.42;;;11.73;;
71387;SDS011;59201;59.902;10.520;2022-12-18T10:31:45;30.35;;;14.18;;
71387;SDS011;59201;59.902;10.520;2022-12-18T10:34:15;22.38;;;10.13;;
71387;SDS011;59201;59.902;10.520;2022-12-18T10:43:10;23.50;;;11.23;;
71387;SDS011;59201;59.902;10.520;2022-12-18T10:54:37;30.03;;;14.57;;
71387;SDS011;59201;59.902;10.520;2022-12-18T11:00:31;29.98;;;13.40;;
71387;SDS011;59201;59.902;10.520;2022-12-18T11:02:59;25.30;;;11.32;;
71387;SDS011;59201;59.902;10.520;2022-12-18T11:05:31;32.47;;;14.18;;
71387;SDS011;59201;59.902;10.520;2022-12-18T11:08:00;29.00;;;13.17;;
71387;SDS011;59201;59.902;10.520;2022-12-18T11:10:37;35.67;;;16.30;;
71387;SDS011;59201;59.902;10.520;2022-12-18T11:13:15;32.60;;;14.60;;
71387;SDS011;59201;59.902;10.520;2022-12-18T11:15:44;28.15;;;12.07;;
71387;SDS011;59201;59.902;10.520;2022-12-18T11:18:19;26.27;;;12.55;;
71387;SDS011;59201;59.902;10.520;2022-12-18T11:20:51;21.60;;;10.10;;
71387;SDS011;59201;59.902;10.520;2022-12-18T11:23:19;17.45;;;8.40;;
71387;SDS011;59201;59.902;10.520;2022-12-18T11:25:54;17.75;;;8.27;;
71387;SDS011;59201;59.902;10.520;2022-12-18T11:28:36;18.73;;;7.65;;
71387;SDS011;59201;59.902;10.520;2022-12-18T11:31:14;15.25;;;7.22;;
71387;SDS011;59201;59.902;10.520;2022-12-18T11:33:48;16.50;;;7.40;;
71387;SDS011;59201;59.902;10.520;2022-12-18T11:36:33;19.85;;;8.75;;
71387;SDS011;59201;59.902;10.520;2022-12-18T11:39:17;22.05;;;8.60;;
71387;SDS011;59201;59.902;10.520;2022-12-18T11:41:54;21.30;;;7.85;;
71387;SDS011;59201;59.902;10.520;2022-12-18T11:44:45;15.70;;;8.10;;
71387;SDS011;59201;59.902;10.520;2022-12-18T11:50:03;17.98;;;7.07;;
71387;SDS011;59201;59.902;10.520;2022-12-18T11:52:39;20.13;;;10.48;;
71387;SDS011;59201;59.902;10.520;2022-12-18T11:55:18;23.33;;;9.80;;
71387;SDS011;59201;59.902;10.520;2022-12-18T12:00:23;21.77;;;9.30;;
71387;SDS011;59201;59.902;10.520;2022-12-18T12:19:17;28.88;;;14.20;;
71387;SDS011;59201;59.902;10.520;2022-12-18T12:21:17;30.48;;;14.35;;
71387;SDS011;59201;59.902;10.520;2022-12-18T12:26:45;26.23;;;11.63;;
71387;SDS011;59201;59.902;10.520;2022-12-18T12:32:12;29.58;;;11.63;;
71387;SDS011;59201;59.902;10.520;2022-12-18T12:35:01;28.13;;;14.40;;
71387;SDS011;59201;59.902;10.520;2022-12-18T12:37:40;25.35;;;11.30;;
71387;SDS011;59201;59.902;10.520;2022-12-18T12:40:12;26.73;;;11.30;;
71387;SDS011;59201;59.902;10.520;2022-12-18T12:42:43;30.90;;;13.32;;
71387;SDS011;59201;59.902;10.520;2022-12-18T12:46:15;23.75;;;10.48;;
71387;SDS011;59201;59.902;10.520;2022-12-18T12:49:02;15.27;;;7.05;;
71387;SDS011;59201;59.902;10.520;2022-12-18T12:51:50;14.18;;;5.40;;
71387;SDS011;59201;59.902;10.520;2022-12-18T12:54:01;22.87;;;9.77;;
71387;SDS011;59201;59.902;10.520;2022-12-18T12:56:36;27.58;;;10.20;;
71387;SDS011;59201;59.902;10.520;2022-12-18T12:59:21;23.20;;;7.80;;
71387;SDS011;59201;59.902;10.520;2022-12-18T13:01:57;20.95;;;8.55;;
71387;SDS011;59201;59.902;10.520;2022-12-18T13:07:46;21.43;;;9.40;;
71387;SDS011;59201;59.902;10.520;2022-12-18T13:12:56;27.88;;;12.45;;
71387;SDS011;59201;59.902;10.520;2022-12-18T13:18:05;27.45;;;11.27;;
71387;SDS011;59201;59.902;10.520;2022-12-18T13:20:39;24.27;;;10.60;;
71387;SDS011;59201;59.902;10.520;2022-12-18T13:25:46;22.80;;;9.43;;
71387;SDS011;59201;59.902;10.520;2022-12-18T13:30:57;32.97;;;14.40;;
71387;SDS011;59201;59.902;10.520;2022-12-18T13:38:41;23.52;;;10.57;;
71387;SDS011;59201;59.902;10.520;2022-12-18T13:43:53;30.40;;;14.40;;
71387;SDS011;59201;59.902;10.520;2022-12-18T13:46:24;26.73;;;13.67;;
71387;SDS011;59201;59.902;10.520;2022-12-18T13:49:21;28.88;;;13.27;;
71387;SDS011;59201;59.902;10.520;2022-12-18T13:51:51;34.72;;;17.13;;
71387;SDS011;59201;59.902;10.520;2022-12-18T14:09:53;25.23;;;12.18;;
71387;SDS011;59201;59.902;10.520;2022-12-18T14:12:31;25.48;;;10.68;;
71387;SDS011;59201;59.902;10.520;2022-12-18T14:15:31;16.63;;;7.40;;
71387;SDS011;59201;59.902;10.520;2022-12-18T14:18:03;18.13;;;8.07;;
71387;SDS011;59201;59.902;10.520;2022-12-18T14:23:42;13.93;;;6.38;;
71387;SDS011;59201;59.902;10.520;2022-12-18T14:26:21;21.38;;;8.10;;
71387;SDS011;59201;59.902;10.520;2022-12-18T14:28:49;18.50;;;8.27;;
71387;SDS011;59201;59.902;10.520;2022-12-18T14:31:21;19.08;;;7.75;;
71387;SDS011;59201;59.902;10.520;2022-12-18T14:33:49;18.48;;;9.02;;
71387;SDS011;59201;59.902;10.520;2022-12-18T14:36:30;18.77;;;7.72;;
71387;SDS011;59201;59.902;10.520;2022-12-18T14:39:02;22.20;;;9.45;;
71387;SDS011;59201;59.902;10.520;2022-12-18T14:41:40;26.73;;;13.27;;
71387;SDS011;59201;59.902;10.520;2022-12-18T14:44:23;26.27;;;11.45;;
71387;SDS011;59201;59.902;10.520;2022-12-18T14:46:51;22.38;;;10.82;;
71387;SDS011;59201;59.902;10.520;2022-12-18T14:49:34;20.02;;;9.73;;
71387;SDS011;59201;59.902;10.520;2022-12-18T14:52:04;17.85;;;8.85;;
71387;SDS011;59201;59.902;10.520;2022-12-18T14:54:39;24.67;;;11.37;;
71387;SDS011;59201;59.902;10.520;2022-12-18T14:57:29;24.88;;;11.50;;
71387;SDS011;59201;59.902;10.520;2022-12-18T15:00:17;23.35;;;12.15;;
71387;SDS011;59201;59.902;10.520;2022-12-18T15:36:55;23.88;;;10.60;;
71387;SDS011;59201;59.902;10.520;2022-12-18T15:39:35;21.97;;;8.20;;
71387;SDS011;59201;59.902;10.520;2022-12-18T15:42:07;26.58;;;11.52;;
71387;SDS011;59201;59.902;10.520;2022-12-18T15:44:52;24.50;;;11.18;;
71387;SDS011;59201;59.902;10.520;2022-12-18T15:47:22;25.02;;;11.18;;
71387;SDS011;59201;59.902;10.520;2022-12-18T15:49:51;30.95;;;12.45;;
71387;SDS011;59201;59.902;10.520;2022-12-18T15:52:27;24.50;;;10.80;;
71387;SDS011;59201;59.902;10.520;2022-12-18T15:54:55;20.65;;;9.00;;
71387;SDS011;59201;59.902;10.520;2022-12-18T15:57:40;24.45;;;9.43;;
71387;SDS011;59201;59.902;10.520;2022-12-18T16:00:10;17.98;;;8.23;;
71387;SDS011;59201;59.902;10.520;2022-12-18T16:02:38;15.57;;;6.00;;
71387;SDS011;59201;59.902;10.520;2022-12-18T16:05:16;17.33;;;7.50;;
71387;SDS011;59201;59.902;10.520;2022-12-18T16:07:45;13.48;;;5.10;;
71387;SDS011;59201;59.902;10.520;2022-12-18T16:10:14;20.73;;;8.55;;
71387;SDS011;59201;59.902;10.520;2022-12-18T16:12:42;22.90;;;10.98;;
71387;SDS011;59201;59.902;10.520;2022-12-18T16:15:13;34.50;;;14.75;;
71387;SDS011;59201;59.902;10.520;2022-12-18T16:17:45;28.30;;;12.53;;
71387;SDS011;59201;59.902;10.520;2022-12-18T16:20:21;32.60;;;14.85;;
71387;SDS011;59201;59.902;10.520;2022-12-18T16:26:17;29.10;;;14.88;;
71387;SDS011;59201;59.902;10.520;2022-12-18T16:28:56;33.00;;;15.82;;
71387;SDS011;59201;59.902;10.520;2022-12-18T16:38:18;40.22;;;17.67;;
71387;SDS011;59201;59.902;10.520;2022-12-18T16:44:14;41.63;;;16.90;;
71387;SDS011;59201;59.902;10.520;2022-12-18T16:46:44;31.93;;;15.30;;
71387;SDS011;59201;59.902;10.520;2022-12-18T16:49:17;31.70;;;17.25;;
71387;SDS011;59201;59.902;10.520;2022-12-18T16:51:45;29.83;;;15.40;;
71387;SDS011;59201;59.902;10.520;2022-12-18T16:54:18;30.10;;;13.88;;
71387;SDS011;59201;59.902;10.520;2022-12-18T16:56:48;23.70;;;12.73;;
71387;SDS011;59201;59.902;10.520;2022-12-18T16:59:18;51.53;;;20.80;;
71387;SDS011;59201;59.902;10.520;2022-12-18T17:01:47;32.70;;;14.30;;
71387;SDS011;59201;59.902;10.520;2022-12-18T17:07:22;33.85;;;15.20;;
71387;SDS011;59201;59.902;10.520;2022-12-18T17:09:59;25.95;;;12.02;;
71387;SDS011;59201;59.902;10.520;2022-12-18T17:12:30;31.97;;;13.37;;
71387;SDS011;59201;59.902;10.520;2022-12-18T17:14:58;24.33;;;11.65;;
71387;SDS011;59201;59.902;10.520;2022-12-18T17:17:37;25.13;;;12.55;;
71387;SDS011;59201;59.902;10.520;2022-12-18T17:20:09;23.48;;;11.35;;
71387;SDS011;59201;59.902;10.520;2022-12-18T17:22:39;23.13;;;10.93;;
71387;SDS011;59201;59.902;10.520;2022-12-18T17:25:12;16.47;;;7.43;;
71387;SDS011;59201;59.902;10.520;2022-12-18T17:27:42;14.93;;;6.75;;
71387;SDS011;59201;59.902;10.520;2022-12-18T17:30:17;22.95;;;10.40;;
71387;SDS011;59201;59.902;10.520;2022-12-18T17:33:04;16.08;;;6.35;;
71387;SDS011;59201;59.902;10.520;2022-12-18T17:39:42;17.63;;;7.40;;
71387;SDS011;59201;59.902;10.520;2022-12-18T17:45:27;18.70;;;8.43;;
71387;SDS011;59201;59.902;10.520;2022-12-18T17:47:57;21.42;;;8.20;;
71387;SDS011;59201;59.902;10.520;2022-12-18T17:50:27;18.02;;;7.00;;
71387;SDS011;59201;59.902;10.520;2022-12-18T17:52:55;20.07;;;8.37;;
71387;SDS011;59201;59.902;10.520;2022-12-18T17:55:28;19.17;;;8.65;;
71387;SDS011;59201;59.902;10.520;2022-12-18T18:01:05;22.88;;;9.13;;
71387;SDS011;59201;59.902;10.520;2022-12-18T18:03:33;18.42;;;7.57;;
71387;SDS011;59201;59.902;10.520;2022-12-18T18:06:02;15.37;;;5.73;;
71387;SDS011;59201;59.902;10.520;2022-12-18T18:08:32;16.92;;;5.70;;
71387;SDS011;59201;59.902;10.520;2022-12-18T18:11:04;20.52;;;7.10;;
71387;SDS011;59201;59.902;10.520;2022-12-18T18:13:50;16.00;;;7.50;;
71387;SDS011;59201;59.902;10.520;2022-12-18T18:16:31;20.45;;;6.95;;
71387;SDS011;59201;59.902;10.520;2022-12-18T18:19:00;15.70;;;5.23;;
71387;SDS011;59201;59.902;10.520;2022-12-18T18:21:29;19.90;;;7.47;;
71387;SDS011;59201;59.902;10.520;2022-12-18T18:24:03;21.67;;;8.07;;
71387;SDS011;59201;59.902;10.520;2022-12-18T18:29:44;34.08;;;13.93;;
71387;SDS011;59201;59.902;10.520;2022-12-18T18:32:12;43.80;;;17.13;;
71387;SDS011;59201;59.902;10.520;2022-12-18T18:34:42;52.50;;;18.35;;
71387;SDS011;59201;59.902;10.520;2022-12-18T18:37:17;23.80;;;10.07;;